createdAt,value
2022-10-11T14:05:25.328Z,101190.55
2022-10-11T14:07:55.802Z,101189.89
2022-10-11T14:10:27.010Z,101190.08
2022-10-11T14:13:24.136Z,101186.59
2022-10-11T14:16:29.733Z,101190.40
2022-10-11T14:19:11.879Z,101186.61
2022-10-11T15:33:07.209Z,101207.80
2022-10-11T15:35:37.456Z,101207.45
2022-10-11T15:38:07.822Z,101215.61
2022-10-11T15:40:38.713Z,101215.01
2022-10-11T15:43:08.972Z,101221.58
2022-10-11T15:45:39.393Z,101218.30
2022-10-11T15:48:12.521Z,101221.69
2022-10-11T15:50:43.535Z,101223.27
2022-10-11T15:53:16.306Z,101228.08
2022-10-11T15:55:49.565Z,101232.62
2022-10-11T15:58:21.783Z,101233.98
2022-10-11T16:00:54.754Z,101236.08
2022-10-11T16:03:27.953Z,101231.75
2022-10-11T16:06:04.623Z,101240.99
2022-10-11T16:08:36.255Z,101239.64
2022-10-11T16:11:08.761Z,101237.21
2022-10-11T16:13:39.296Z,101238.20
2022-10-11T16:16:10.807Z,101242.15
2022-10-11T16:18:44.052Z,101243.59
2022-10-11T16:21:16.152Z,101244.98
2022-10-11T16:23:46.367Z,101246.85
2022-10-11T16:26:17.614Z,101243.70
2022-10-11T16:28:48.530Z,101249.48
2022-10-11T16:31:21.008Z,101241.73
2022-10-11T16:33:52.860Z,101249.80
2022-10-11T16:36:35.861Z,101245.90
2022-10-11T16:39:09.772Z,101248.29
2022-10-11T16:41:40.650Z,101253.14
2022-10-11T16:44:14.871Z,101263.58
2022-10-11T16:46:48.037Z,101269.98
2022-10-11T16:49:19.088Z,101272.85
2022-10-11T16:51:49.325Z,101271.70
2022-10-11T16:54:20.805Z,101274.55
2022-10-11T16:56:51.747Z,101277.04
2022-10-11T16:59:22.165Z,101282.36
2022-10-11T17:01:52.449Z,101276.27
2022-10-11T17:04:25.133Z,101279.83
2022-10-11T17:06:56.433Z,101279.52
2022-10-11T17:09:27.301Z,101281.84
2022-10-11T17:12:00.221Z,101282.42
2022-10-11T17:14:30.506Z,101284.39
2022-10-11T17:17:00.714Z,101284.44
2022-10-11T17:19:31.301Z,101286.40
2022-10-11T17:22:01.544Z,101289.43
2022-10-11T17:24:31.810Z,101294.38
2022-10-11T17:27:02.021Z,101296.84
2022-10-11T17:29:32.731Z,101297.21
2022-10-11T17:32:03.308Z,101299.33
2022-10-11T17:34:33.988Z,101298.81
2022-10-11T17:37:04.286Z,101297.23
2022-10-11T17:39:34.571Z,101295.63
2022-10-11T17:42:07.475Z,101298.44
2022-10-11T17:44:38.632Z,101300.89
2022-10-11T17:47:08.901Z,101294.93
2022-10-11T17:49:39.190Z,101296.34
2022-10-11T17:52:09.552Z,101300.00
2022-10-11T17:54:42.948Z,101296.33
2022-10-11T17:57:13.247Z,101297.90
2022-10-11T17:59:43.520Z,101298.94
2022-10-11T18:02:16.923Z,101299.45
2022-10-11T18:04:47.489Z,101300.48
2022-10-11T18:07:17.740Z,101306.23
2022-10-11T18:09:48.034Z,101303.25
2022-10-11T18:12:18.293Z,101309.52
2022-10-11T18:14:48.591Z,101310.73
2022-10-11T18:17:19.039Z,101310.71
2022-10-11T18:19:49.332Z,101314.91
2022-10-11T18:22:19.635Z,101312.43
2022-10-11T18:24:52.916Z,101314.15
2022-10-11T18:27:23.194Z,101314.28
2022-10-11T18:29:53.447Z,101315.64
2022-10-11T18:32:23.700Z,101311.41
2022-10-11T18:34:55.812Z,101310.71
2022-10-11T18:37:26.061Z,101309.68
2022-10-11T18:39:56.519Z,101314.73
2022-10-11T18:42:26.829Z,101317.86
2022-10-11T18:44:57.928Z,101313.09
2022-10-11T18:47:28.169Z,101315.34
2022-10-11T18:49:58.421Z,101312.35
2022-10-11T18:52:28.697Z,101315.11
2022-10-11T18:54:58.984Z,101315.96
2022-10-11T18:57:29.264Z,101315.59
2022-10-11T19:00:01.363Z,101318.00
2022-10-11T19:02:37.861Z,101317.77
2022-10-11T19:05:09.273Z,101314.59
2022-10-11T19:07:40.446Z,101312.98
2022-10-11T19:10:12.030Z,101313.77
2022-10-11T19:12:42.632Z,101314.42
2022-10-11T19:15:13.445Z,101318.73
2022-10-11T19:17:44.007Z,101320.79
2022-10-11T19:20:14.791Z,101322.11
2022-10-11T19:22:45.193Z,101325.20
2022-10-11T19:25:15.695Z,101324.45
2022-10-11T19:27:46.053Z,101323.70
2022-10-11T19:30:16.556Z,101323.98
2022-10-11T19:32:47.007Z,101328.29
2022-10-11T19:35:20.170Z,101328.58
2022-10-11T19:37:51.879Z,101329.59
2022-10-11T19:40:22.729Z,101329.59
2022-10-11T19:42:53.155Z,101328.36
2022-10-11T19:45:24.065Z,101330.11
2022-10-11T19:47:54.339Z,101331.02
2022-10-11T19:50:24.569Z,101328.61
2022-10-11T19:52:54.801Z,101331.56
2022-10-11T19:55:25.144Z,101335.92
2022-10-11T19:57:55.462Z,101339.75
2022-10-11T20:00:25.764Z,101340.27
2022-10-11T20:03:01.231Z,101338.50
2022-10-11T20:05:31.593Z,101343.74
2022-10-11T20:08:01.801Z,101343.19
2022-10-11T20:10:32.116Z,101345.77
2022-10-11T20:13:02.327Z,101345.22
2022-10-11T20:15:37.682Z,101341.37
2022-10-11T20:18:08.310Z,101344.66
2022-10-11T20:20:38.534Z,101343.95
2022-10-11T20:23:09.341Z,101347.45
2022-10-11T20:25:39.783Z,101347.09
2022-10-11T20:28:10.101Z,101347.27
2022-10-11T20:30:44.730Z,101351.27
2022-10-11T20:33:15.037Z,101350.90
2022-10-11T20:35:45.282Z,101352.61
2022-10-11T20:38:15.523Z,101356.27
2022-10-11T20:40:45.717Z,101359.86
2022-10-11T20:43:15.938Z,101366.40
2022-10-11T20:45:47.299Z,101361.84
2022-10-11T20:48:17.551Z,101363.89
2022-10-11T20:50:47.893Z,101361.14
2022-10-11T20:53:18.127Z,101360.17
2022-10-11T20:55:49.697Z,101359.30
2022-10-11T20:58:21.221Z,101360.96
2022-10-11T21:00:51.570Z,101356.58
2022-10-11T21:03:22.141Z,101356.73
2022-10-11T21:06:00.568Z,101357.09
2022-10-11T21:08:31.087Z,101361.46
2022-10-11T21:11:01.485Z,101360.01
2022-10-11T21:13:31.755Z,101358.17
2022-10-11T21:16:08.049Z,101357.23
2022-10-11T21:18:38.656Z,101357.75
2022-10-11T21:21:10.943Z,101357.77
2022-10-11T21:23:41.658Z,101358.13
2022-10-11T21:26:14.536Z,101360.89
2022-10-11T21:28:45.512Z,101362.95
2022-10-11T21:31:17.086Z,101367.79
2022-10-11T21:33:47.337Z,101365.66
2022-10-11T21:36:19.469Z,101368.15
2022-10-11T21:38:50.439Z,101368.45
2022-10-11T21:41:22.582Z,101360.13
2022-10-11T21:43:53.211Z,101363.60
2022-10-11T21:46:41.664Z,101362.18
2022-10-11T21:49:15.651Z,101363.57
2022-10-11T21:51:46.142Z,101364.63
2022-10-11T21:54:16.452Z,101360.98
2022-10-11T21:56:46.740Z,101362.92
2022-10-11T21:59:17.577Z,101361.36
2022-10-11T22:01:47.838Z,101361.52
2022-10-11T22:04:18.119Z,101363.42
2022-10-11T22:06:48.329Z,101364.77
2022-10-11T22:09:18.625Z,101369.31
2022-10-11T22:11:50.199Z,101367.44
2022-10-11T22:14:20.441Z,101363.70
2022-10-11T22:16:50.663Z,101360.14
2022-10-11T22:19:20.950Z,101365.47
2022-10-11T22:21:51.351Z,101360.27
2022-10-11T22:24:21.635Z,101365.16
2022-10-11T22:26:51.939Z,101366.01
2022-10-11T22:29:22.208Z,101367.59
2022-10-11T22:31:52.564Z,101367.65
2022-10-11T22:34:22.929Z,101364.71
2022-10-11T22:36:53.115Z,101366.05
2022-10-11T22:39:23.374Z,101363.45
2022-10-11T22:41:55.956Z,101365.37
2022-10-11T22:44:26.174Z,101365.45
2022-10-11T22:46:56.397Z,101368.23
2022-10-11T22:49:26.959Z,101367.86
2022-10-11T22:51:57.229Z,101367.31
2022-10-11T22:54:27.450Z,101366.55
2022-10-11T22:56:57.917Z,101365.46
2022-10-11T22:59:28.256Z,101366.84
2022-10-11T23:02:00.559Z,101372.04
2022-10-11T23:04:30.799Z,101367.93
2022-10-11T23:07:04.965Z,101367.95
2022-10-11T23:09:35.600Z,101365.38
2022-10-11T23:12:06.268Z,101367.83
2022-10-11T23:14:36.524Z,101366.04
2022-10-11T23:17:07.020Z,101366.58
2022-10-11T23:19:37.819Z,101370.31
2022-10-11T23:22:07.989Z,101371.20
2022-10-11T23:24:38.230Z,101368.85
2022-10-11T23:27:08.860Z,101365.97
2022-10-11T23:29:40.899Z,101364.38
2022-10-11T23:32:11.666Z,101362.52
2022-10-11T23:34:42.181Z,101366.23
2022-10-11T23:37:12.441Z,101362.42
2022-10-11T23:39:42.656Z,101365.19
2022-10-11T23:42:13.123Z,101368.33
2022-10-11T23:44:43.554Z,101369.94
2022-10-11T23:47:13.787Z,101372.02
2022-10-11T23:49:44.257Z,101372.23
2022-10-11T23:52:14.581Z,101368.13
2022-10-11T23:54:44.795Z,101372.76
2022-10-11T23:57:15.051Z,101379.58
2022-10-11T23:59:45.327Z,101386.10
